Time;durP1;ratioP1;P1;durP2;ratioP2;P2;SDS_P1;SDS_P2;PMS_P1;PMS_P2;Temp;Humidity;BMP_temperature;BMP_pressure;BME280_temperature;BME280_humidity;BME280_pressure;Samples;Min_cycle;Max_cycle;Signal;HPM_P1;HPM_P2
2023/09/30 00:02:00;;;;;;;13.90;5.77;;;13.20;99.90;;;;;;6082458;23;20185;-74
2023/09/30 00:04:27;;;;;;;9.03;5.00;;;13.20;99.90;;;;;;6035767;23;20183;-74
2023/09/30 00:06:53;;;;;;;7.13;4.27;;;13.20;99.90;;;;;;6059944;23;20657;-73
2023/09/30 00:09:19;;;;;;;11.23;5.73;;;13.20;99.90;;;;;;6058547;23;20362;-74
2023/09/30 00:11:46;;;;;;;11.47;5.20;;;13.10;99.90;;;;;;6056088;23;20380;-73
2023/09/30 00:14:12;;;;;;;11.80;6.73;;;13.10;99.90;;;;;;6039740;23;20405;-76
2023/09/30 00:16:38;;;;;;;7.63;5.20;;;13.10;99.90;;;;;;6086128;23;20378;-74
2023/09/30 00:19:04;;;;;;;7.43;4.93;;;13.00;99.90;;;;;;6060618;23;20494;-72
2023/09/30 00:21:30;;;;;;;7.87;4.67;;;13.00;99.90;;;;;;6081424;23;20148;-73
2023/09/30 00:23:56;;;;;;;7.93;4.60;;;13.00;99.90;;;;;;6059269;23;20173;-74
2023/09/30 00:26:22;;;;;;;6.10;3.90;;;13.00;99.90;;;;;;6084105;23;20444;-74
2023/09/30 00:28:47;;;;;;;6.70;4.10;;;13.00;99.90;;;;;;6031679;23;20375;-73
2023/09/30 00:31:13;;;;;;;5.50;4.13;;;13.00;99.90;;;;;;6057845;23;20379;-74
2023/09/30 00:33:40;;;;;;;5.63;3.23;;;13.00;99.90;;;;;;6083937;23;20180;-74
2023/09/30 00:36:09;;;;;;;6.60;3.13;;;12.90;99.90;;;;;;6059068;23;20383;-74
2023/09/30 00:38:36;;;;;;;5.13;3.60;;;12.90;99.90;;;;;;6082450;23;20200;-73
2023/09/30 00:41:02;;;;;;;9.10;6.00;;;12.90;99.90;;;;;;6082657;23;20413;-72
2023/09/30 00:43:28;;;;;;;5.83;3.50;;;12.90;99.90;;;;;;6085058;23;20448;-74
2023/09/30 00:46:03;;;;;;;6.60;3.53;;;13.00;99.90;;;;;;6060915;23;20377;-72
2023/09/30 00:48:29;;;;;;;8.40;4.27;;;13.00;99.90;;;;;;6082290;23;20147;-74
2023/09/30 00:50:57;;;;;;;5.27;3.60;;;12.90;99.90;;;;;;6083436;23;20352;-73
2023/09/30 00:53:23;;;;;;;6.93;4.43;;;13.10;99.90;;;;;;6083935;23;20432;-73
2023/09/30 00:55:49;;;;;;;6.67;3.57;;;13.00;99.90;;;;;;6062277;23;20436;-72
2023/09/30 00:58:16;;;;;;;5.20;3.23;;;13.10;99.90;;;;;;6081097;23;20370;-73
2023/09/30 01:00:42;;;;;;;5.90;3.30;;;13.00;99.90;;;;;;6055709;23;20505;-72
2023/09/30 01:03:08;;;;;;;5.23;2.90;;;13.00;99.90;;;;;;6056617;23;20796;-76
2023/09/30 01:05:34;;;;;;;6.00;3.63;;;13.00;99.90;;;;;;6058212;23;20153;-73
2023/09/30 01:08:02;;;;;;;9.70;4.03;;;13.00;99.90;;;;;;6059001;23;20421;-72
2023/09/30 01:10:28;;;;;;;5.00;3.30;;;13.00;99.90;;;;;;6061027;23;20390;-72
2023/09/30 01:12:54;;;;;;;3.47;2.83;;;13.00;99.90;;;;;;6054772;23;20374;-74
2023/09/30 01:15:20;;;;;;;3.67;2.80;;;12.90;99.90;;;;;;6055109;23;20187;-71
2023/09/30 01:17:45;;;;;;;3.90;2.50;;;12.90;99.90;;;;;;6055544;23;20150;-74
2023/09/30 01:20:16;;;;;;;3.60;2.43;;;12.90;99.90;;;;;;6079730;23;20160;-74
2023/09/30 01:22:45;;;;;;;4.13;2.67;;;12.90;99.90;;;;;;6080785;23;20153;-73
2023/09/30 01:25:11;;;;;;;4.33;2.57;;;12.80;99.90;;;;;;6056089;23;20491;-73
2023/09/30 01:27:37;;;;;;;3.37;2.30;;;12.80;99.90;;;;;;6053761;23;20405;-74
2023/09/30 01:30:03;;;;;;;8.93;3.33;;;12.90;99.90;;;;;;6081265;23;20385;-72
2023/09/30 01:32:30;;;;;;;9.40;5.00;;;12.90;99.90;;;;;;6027557;23;20851;-73
2023/09/30 01:34:56;;;;;;;15.03;5.10;;;12.80;99.90;;;;;;6004988;23;20467;-74
2023/09/30 01:37:22;;;;;;;5.23;3.57;;;12.80;99.90;;;;;;6004283;23;20234;-73
2023/09/30 01:39:50;;;;;;;5.47;3.93;;;12.90;99.90;;;;;;6026185;23;20488;-72
2023/09/30 01:42:15;;;;;;;4.47;3.30;;;12.80;99.90;;;;;;6000462;23;20162;-74
2023/09/30 01:44:41;;;;;;;10.90;5.20;;;12.80;99.90;;;;;;6047610;23;20402;-73
2023/09/30 01:47:07;;;;;;;7.93;3.97;;;12.80;99.90;;;;;;5999743;23;20286;-71
2023/09/30 01:49:32;;;;;;;6.20;3.43;;;12.80;99.90;;;;;;6026405;23;20172;-72
2023/09/30 01:51:58;;;;;;;4.93;3.80;;;12.90;99.90;;;;;;6022928;23;20189;-74
2023/09/30 01:54:24;;;;;;;5.50;3.57;;;12.90;99.90;;;;;;6024123;23;20201;-73
2023/09/30 01:56:50;;;;;;;5.83;3.47;;;13.00;99.90;;;;;;6026249;23;20820;-73
2023/09/30 01:59:16;;;;;;;6.23;3.47;;;13.00;99.90;;;;;;6027689;23;20163;-73
2023/09/30 02:01:42;;;;;;;5.20;2.67;;;13.00;99.90;;;;;;6025151;23;20163;-73
2023/09/30 02:04:07;;;;;;;3.90;3.00;;;13.00;99.90;;;;;;6067844;23;20399;-72
2023/09/30 02:06:33;;;;;;;5.33;3.60;;;12.90;99.90;;;;;;6078237;23;20169;-72
2023/09/30 02:08:59;;;;;;;7.03;3.47;;;12.80;99.90;;;;;;6099888;23;20159;-72
2023/09/30 02:11:24;;;;;;;8.13;3.97;;;12.80;99.90;;;;;;6102468;23;20431;-74
2023/09/30 02:13:50;;;;;;;9.57;3.73;;;12.70;99.90;;;;;;6102912;23;20166;-73
2023/09/30 02:16:15;;;;;;;6.20;3.63;;;12.70;99.90;;;;;;6057115;23;20158;-72
2023/09/30 02:18:44;;;;;;;4.37;3.50;;;12.60;99.90;;;;;;6077018;23;20141;-72
2023/09/30 02:21:10;;;;;;;6.50;3.50;;;12.50;99.90;;;;;;6079295;23;20132;-73
2023/09/30 02:23:36;;;;;;;4.27;3.07;;;12.60;99.90;;;;;;6079381;23;20435;-73
2023/09/30 02:26:03;;;;;;;4.77;3.20;;;12.50;99.90;;;;;;6078872;23;20144;-71
2023/09/30 02:28:32;;;;;;;9.67;4.43;;;12.50;99.90;;;;;;6079871;23;20214;-71
2023/09/30 02:30:58;;;;;;;7.93;5.07;;;12.50;99.90;;;;;;6080383;23;20373;-72
2023/09/30 02:33:25;;;;;;;6.67;4.33;;;12.40;99.90;;;;;;6104453;23;20432;-72
2023/09/30 02:35:51;;;;;;;8.67;4.40;;;12.40;99.90;;;;;;6060171;23;20397;-70
2023/09/30 02:38:20;;;;;;;10.90;4.77;;;12.40;99.90;;;;;;6071577;23;20676;-70
2023/09/30 02:40:48;;;;;;;7.20;4.33;;;12.40;99.90;;;;;;6094412;23;20373;-71
2023/09/30 02:43:14;;;;;;;12.03;5.63;;;12.40;99.90;;;;;;6073386;23;20448;-72
2023/09/30 02:45:39;;;;;;;8.87;4.80;;;12.40;99.90;;;;;;6072470;23;20368;-72
2023/09/30 02:48:06;;;;;;;5.93;4.10;;;12.30;99.90;;;;;;6094702;23;20173;-73
2023/09/30 02:50:32;;;;;;;9.50;5.43;;;12.40;99.90;;;;;;6076472;23;20140;-71
2023/09/30 02:52:59;;;;;;;9.27;4.77;;;12.40;99.90;;;;;;6083430;23;20357;-71
2023/09/30 02:55:25;;;;;;;7.70;3.97;;;12.40;99.90;;;;;;6106445;23;20435;-71
2023/09/30 02:57:50;;;;;;;7.07;4.53;;;12.40;99.90;;;;;;6080300;23;20139;-71
2023/09/30 03:00:32;;;;;;;7.13;5.03;;;12.40;99.90;;;;;;6080373;23;20148;-71
2023/09/30 03:03:04;;;;;;;8.67;4.47;;;12.40;99.90;;;;;;6080386;23;20284;-73
2023/09/30 03:05:33;;;;;;;9.50;5.40;;;12.40;99.90;;;;;;6085355;23;20389;-72
2023/09/30 03:08:00;;;;;;;5.77;4.13;;;12.40;99.90;;;;;;6069844;23;20417;-71
2023/09/30 03:10:26;;;;;;;7.27;4.30;;;12.40;99.90;;;;;;6091227;23;20376;-73
2023/09/30 03:13:01;;;;;;;9.23;5.37;;;12.40;99.90;;;;;;6086695;23;20454;-70
2023/09/30 03:15:31;;;;;;;5.80;3.93;;;12.40;99.90;;;;;;6083244;23;20396;-72
2023/09/30 03:17:57;;;;;;;6.53;4.43;;;12.40;99.90;;;;;;6076149;23;20369;-70
2023/09/30 03:20:25;;;;;;;5.60;4.03;;;12.40;99.90;;;;;;6074414;23;20373;-70
2023/09/30 03:22:51;;;;;;;8.90;4.57;;;12.40;99.90;;;;;;6073246;23;20472;-72
2023/09/30 03:25:19;;;;;;;4.80;2.80;;;12.40;99.90;;;;;;6073442;23;20401;-71
2023/09/30 03:27:48;;;;;;;5.10;3.30;;;12.30;99.90;;;;;;6097908;23;20402;-72
2023/09/30 03:30:15;;;;;;;3.83;2.90;;;12.30;99.90;;;;;;6074010;23;20351;-72
2023/09/30 03:32:41;;;;;;;5.13;3.27;;;12.20;99.90;;;;;;6073822;23;20365;-71
2023/09/30 03:35:10;;;;;;;6.57;4.30;;;12.20;99.90;;;;;;6074436;23;20386;-71
2023/09/30 03:37:37;;;;;;;7.13;4.00;;;12.20;99.90;;;;;;6071162;23;20477;-72
2023/09/30 03:40:11;;;;;;;6.50;4.10;;;12.10;99.90;;;;;;6073201;23;20649;-72
2023/09/30 03:42:38;;;;;;;7.77;4.30;;;12.10;99.90;;;;;;6070196;23;20636;-71
2023/09/30 03:45:04;;;;;;;13.43;6.10;;;12.00;99.90;;;;;;6070220;23;20413;-70
2023/09/30 03:47:31;;;;;;;15.37;7.20;;;12.00;99.90;;;;;;6070605;23;20447;-71
2023/09/30 03:49:58;;;;;;;9.20;5.13;;;12.00;99.90;;;;;;6093354;23;20644;-71
2023/09/30 03:52:25;;;;;;;10.50;5.70;;;12.10;99.90;;;;;;6070658;23;20621;-73
2023/09/30 03:54:52;;;;;;;10.43;5.73;;;12.00;99.90;;;;;;6070844;23;20459;-70
2023/09/30 03:57:18;;;;;;;9.37;5.93;;;12.00;99.90;;;;;;6071716;23;20372;-70
2023/09/30 03:59:46;;;;;;;7.60;5.40;;;12.00;99.90;;;;;;6100146;23;20391;-72
2023/09/30 04:02:11;;;;;;;17.07;7.07;;;12.00;99.90;;;;;;6072344;23;20382;-71
2023/09/30 04:04:37;;;;;;;11.57;7.70;;;11.90;99.90;;;;;;6070901;23;20477;-72
2023/09/30 04:07:05;;;;;;;10.20;5.87;;;12.00;99.90;;;;;;6071419;23;20173;-70
2023/09/30 04:09:34;;;;;;;7.93;5.17;;;11.90;99.90;;;;;;6070884;23;20186;-72
2023/09/30 04:12:01;;;;;;;9.23;5.30;;;11.90;99.90;;;;;;6070136;23;20365;-71
2023/09/30 04:14:26;;;;;;;8.10;4.90;;;11.90;99.90;;;;;;6093942;23;20488;-70
2023/09/30 04:16:54;;;;;;;8.73;5.80;;;11.80;99.90;;;;;;6070208;23;20761;-71
2023/09/30 04:19:20;;;;;;;8.73;5.00;;;11.80;99.90;;;;;;6092816;23;20149;-71
2023/09/30 04:21:46;;;;;;;7.10;4.43;;;11.80;99.90;;;;;;6070596;23;20365;-71
2023/09/30 04:24:12;;;;;;;7.10;4.13;;;11.80;99.90;;;;;;6070288;23;20535;-72
2023/09/30 04:26:37;;;;;;;6.97;4.70;;;11.70;99.90;;;;;;6070977;23;20751;-72
2023/09/30 04:29:04;;;;;;;8.73;4.43;;;11.70;99.90;;;;;;6071114;23;20130;-71
2023/09/30 04:31:30;;;;;;;5.30;4.20;;;11.70;99.90;;;;;;6072124;23;20369;-72
2023/09/30 04:33:57;;;;;;;5.87;4.23;;;11.70;99.90;;;;;;6071757;23;20651;-72
2023/09/30 04:36:23;;;;;;;7.63;5.20;;;11.70;99.90;;;;;;6071567;23;20188;-72
2023/09/30 04:38:49;;;;;;;7.17;5.53;;;11.70;99.90;;;;;;6070564;23;20372;-70
2023/09/30 04:41:15;;;;;;;9.60;6.27;;;11.70;99.90;;;;;;6069256;23;20154;-73
2023/09/30 04:43:43;;;;;;;9.70;5.50;;;11.70;99.90;;;;;;6069495;23;20539;-72
2023/09/30 04:46:08;;;;;;;10.90;5.70;;;11.60;99.90;;;;;;6070472;23;20369;-72
2023/09/30 04:48:34;;;;;;;8.37;5.60;;;11.60;99.90;;;;;;6070516;23;20374;-72
2023/09/30 04:51:00;;;;;;;8.30;5.00;;;11.60;99.90;;;;;;6069992;23;20134;-72
2023/09/30 04:53:26;;;;;;;8.53;5.23;;;11.60;99.90;;;;;;6069238;23;20193;-73
2023/09/30 04:55:52;;;;;;;7.60;4.60;;;11.60;99.90;;;;;;6067933;23;20547;-73
2023/09/30 04:58:17;;;;;;;7.03;5.40;;;11.50;99.90;;;;;;6074050;23;20511;-70
2023/09/30 05:00:43;;;;;;;7.27;5.23;;;11.50;99.90;;;;;;6078680;23;20162;-71
2023/09/30 05:03:08;;;;;;;8.20;4.80;;;11.50;99.90;;;;;;6080348;23;20220;-72
2023/09/30 05:05:35;;;;;;;9.70;5.93;;;11.40;99.90;;;;;;6079075;23;20154;-70
2023/09/30 05:08:01;;;;;;;8.10;5.03;;;11.40;99.90;;;;;;6079421;23;20248;-72
2023/09/30 05:10:27;;;;;;;10.50;6.07;;;11.40;99.90;;;;;;6078750;23;20363;-74
2023/09/30 05:12:54;;;;;;;12.50;7.17;;;11.40;99.90;;;;;;6082301;23;20632;-72
2023/09/30 05:15:21;;;;;;;11.77;7.73;;;11.40;99.90;;;;;;6083743;23;20456;-71
2023/09/30 05:17:48;;;;;;;13.77;7.90;;;11.40;99.90;;;;;;6083039;23;20406;-73
2023/09/30 05:20:17;;;;;;;11.50;8.13;;;11.40;99.90;;;;;;6106716;23;20371;-73
2023/09/30 05:22:45;;;;;;;22.93;9.00;;;11.40;99.90;;;;;;6081688;23;20409;-72
2023/09/30 05:25:18;;;;;;;16.67;8.70;;;11.50;99.90;;;;;;6081485;23;20396;-72
2023/09/30 05:27:44;;;;;;;11.50;7.47;;;11.40;99.90;;;;;;6083122;23;20839;-72
2023/09/30 05:30:15;;;;;;;11.53;7.17;;;11.40;99.90;;;;;;6081714;23;20376;-71
2023/09/30 05:32:40;;;;;;;13.30;7.27;;;11.40;99.90;;;;;;6057373;23;20382;-72
2023/09/30 05:35:13;;;;;;;14.10;7.27;;;11.40;99.90;;;;;;6059116;23;20500;-73
2023/09/30 05:37:43;;;;;;;8.83;7.20;;;11.40;99.90;;;;;;6057080;23;20142;-73
2023/09/30 05:40:23;;;;;;;12.80;7.10;;;11.50;99.90;;;;;;6103798;23;20374;-72
2023/09/30 05:42:49;;;;;;;9.53;5.37;;;11.40;99.90;;;;;;6106276;23;20381;-73
2023/09/30 05:45:15;;;;;;;9.67;6.10;;;11.40;99.90;;;;;;6081641;23;20371;-71
2023/09/30 05:47:41;;;;;;;9.60;6.10;;;11.50;99.90;;;;;;6081644;23;20402;-72
2023/09/30 05:50:08;;;;;;;12.73;6.03;;;11.50;99.90;;;;;;6083180;23;20425;-72
2023/09/30 05:52:35;;;;;;;11.47;6.00;;;11.40;99.90;;;;;;6106777;23;20149;-75
2023/09/30 05:55:02;;;;;;;11.10;5.90;;;11.50;99.90;;;;;;6084392;23;20420;-73
2023/09/30 05:57:28;;;;;;;7.30;5.23;;;11.50;99.90;;;;;;6085672;23;20850;-72
2023/09/30 05:59:54;;;;;;;8.13;4.50;;;11.60;99.90;;;;;;6058940;23;20672;-73
2023/09/30 06:02:20;;;;;;;9.23;5.83;;;11.60;99.90;;;;;;6061542;23;20405;-74
2023/09/30 06:04:46;;;;;;;16.40;8.10;;;11.60;99.90;;;;;;6060264;23;20160;-72
2023/09/30 06:07:12;;;;;;;10.13;7.20;;;11.70;99.90;;;;;;6084228;23;20185;-73
2023/09/30 06:09:38;;;;;;;10.37;6.10;;;11.80;99.90;;;;;;6084005;23;20481;-72
2023/09/30 06:12:06;;;;;;;11.50;5.80;;;11.80;99.90;;;;;;6083794;23;20441;-73
2023/09/30 06:14:34;;;;;;;10.57;5.27;;;11.90;99.90;;;;;;6083466;23;20170;-73
2023/09/30 06:17:00;;;;;;;7.60;4.70;;;11.90;99.90;;;;;;6062797;23;20394;-74
2023/09/30 06:19:26;;;;;;;12.30;4.90;;;12.00;99.90;;;;;;6039622;23;20401;-73
2023/09/30 06:21:52;;;;;;;7.13;5.00;;;12.10;99.90;;;;;;6064214;23;20482;-73
2023/09/30 06:24:20;;;;;;;8.77;5.03;;;12.10;99.90;;;;;;6060240;23;20413;-74
2023/09/30 06:26:48;;;;;;;6.17;4.03;;;12.10;99.90;;;;;;6061009;23;20163;-75
2023/09/30 06:29:15;;;;;;;6.67;4.50;;;12.20;99.90;;;;;;6060915;23;20378;-74
2023/09/30 06:31:40;;;;;;;9.53;4.97;;;12.10;99.90;;;;;;6109564;23;20406;-71
2023/09/30 06:34:06;;;;;;;9.40;5.57;;;12.20;99.90;;;;;;6087432;23;20149;-72
2023/09/30 06:36:34;;;;;;;9.37;6.07;;;12.20;99.90;;;;;;6061118;23;20499;-73
2023/09/30 06:39:01;;;;;;;9.87;5.73;;;12.30;99.90;;;;;;6110371;23;20227;-74
2023/09/30 06:41:27;;;;;;;8.50;5.77;;;12.30;99.90;;;;;;6086322;23;20423;-73
2023/09/30 06:43:53;;;;;;;9.30;6.23;;;12.40;99.90;;;;;;6082571;23;20704;-72
2023/09/30 06:46:18;;;;;;;9.60;6.40;;;12.40;99.90;;;;;;6079962;23;20203;-72
2023/09/30 06:48:44;;;;;;;10.03;6.30;;;12.40;99.90;;;;;;6055749;23;20371;-72
2023/09/30 06:51:17;;;;;;;6.70;5.00;;;12.50;99.90;;;;;;6079067;23;20140;-72
2023/09/30 06:53:43;;;;;;;6.97;5.00;;;12.60;99.90;;;;;;6080704;23;20192;-73
2023/09/30 06:56:08;;;;;;;7.90;5.17;;;12.60;99.90;;;;;;6057569;23;20377;-72
2023/09/30 06:58:35;;;;;;;9.10;5.30;;;12.60;99.90;;;;;;6084818;23;20145;-74
2023/09/30 07:01:01;;;;;;;10.13;6.40;;;12.70;99.90;;;;;;6057952;23;20147;-73
2023/09/30 07:03:26;;;;;;;9.30;5.90;;;12.70;99.90;;;;;;6104344;23;20397;-73
2023/09/30 07:05:54;;;;;;;7.97;6.27;;;12.80;99.90;;;;;;6081487;23;20419;-73
2023/09/30 07:08:21;;;;;;;9.70;6.50;;;12.80;99.90;;;;;;6056874;23;20188;-73
2023/09/30 07:10:49;;;;;;;8.33;6.20;;;12.90;99.90;;;;;;6084415;23;20392;-75
2023/09/30 07:13:18;;;;;;;10.67;7.00;;;13.00;99.90;;;;;;6059963;23;20397;-73
2023/09/30 07:15:43;;;;;;;10.60;7.33;;;13.00;99.90;;;;;;6081292;23;20450;-73
2023/09/30 07:18:09;;;;;;;10.80;6.87;;;13.10;99.90;;;;;;6058277;23;20452;-73
2023/09/30 07:20:35;;;;;;;7.73;6.17;;;13.10;99.90;;;;;;6060078;23;20165;-73
2023/09/30 07:23:01;;;;;;;11.20;6.00;;;13.20;99.90;;;;;;6084744;23;20168;-75
2023/09/30 07:25:27;;;;;;;13.33;6.70;;;13.30;99.90;;;;;;6061134;23;20141;-72
2023/09/30 07:27:53;;;;;;;11.07;6.10;;;13.30;99.90;;;;;;6087541;23;20419;-73
2023/09/30 07:30:19;;;;;;;7.50;5.50;;;13.30;99.90;;;;;;6083793;23;20365;-75
2023/09/30 07:32:46;;;;;;;8.50;6.20;;;13.40;99.90;;;;;;6086140;23;20142;-74
2023/09/30 07:35:15;;;;;;;10.20;5.90;;;13.50;99.90;;;;;;6086576;23;20209;-74
2023/09/30 07:37:42;;;;;;;12.10;8.67;;;13.50;99.90;;;;;;6085727;23;20385;-74
2023/09/30 07:40:08;;;;;;;10.73;7.80;;;13.60;99.90;;;;;;6062425;23;20448;-74
2023/09/30 07:42:35;;;;;;;12.67;9.63;;;13.70;99.90;;;;;;6087347;23;20708;-76
2023/09/30 07:45:03;;;;;;;15.83;9.87;;;13.70;99.90;;;;;;6108579;23;20450;-75
2023/09/30 07:47:30;;;;;;;13.40;9.60;;;13.80;99.90;;;;;;6150448;23;20867;-73
2023/09/30 07:49:56;;;;;;;15.27;11.23;;;13.80;99.90;;;;;;6175610;23;20390;-75
2023/09/30 07:52:23;;;;;;;14.40;11.03;;;13.80;99.90;;;;;;6172756;23;20367;-74
2023/09/30 07:54:48;;;;;;;15.87;11.53;;;13.80;99.90;;;;;;6153028;23;20401;-75
2023/09/30 07:57:16;;;;;;;16.60;11.07;;;13.90;99.90;;;;;;6179150;23;20355;-74
2023/09/30 07:59:42;;;;;;;13.17;8.93;;;13.90;99.90;;;;;;6152397;23;20375;-75
2023/09/30 08:02:10;;;;;;;15.97;9.77;;;14.00;99.90;;;;;;6155476;23;20466;-75
2023/09/30 08:04:37;;;;;;;13.70;8.50;;;14.00;99.90;;;;;;6070160;23;20448;-73
2023/09/30 08:07:03;;;;;;;13.17;9.47;;;14.00;99.90;;;;;;6065495;23;20467;-76
2023/09/30 08:09:28;;;;;;;16.67;12.07;;;14.10;99.90;;;;;;6093067;23;20599;-73
2023/09/30 08:11:54;;;;;;;13.27;10.70;;;14.10;99.90;;;;;;6089789;23;20149;-75
2023/09/30 08:14:20;;;;;;;11.13;9.87;;;14.10;99.90;;;;;;6066456;23;20251;-75
2023/09/30 08:16:45;;;;;;;14.50;9.90;;;14.20;99.90;;;;;;6092419;23;20137;-74
2023/09/30 08:19:13;;;;;;;14.80;10.73;;;14.20;99.90;;;;;;6114303;23;20140;-74
2023/09/30 08:21:38;;;;;;;14.97;10.80;;;14.30;99.90;;;;;;6093825;23;20485;-76
2023/09/30 08:24:04;;;;;;;11.57;10.13;;;14.30;99.90;;;;;;6089125;23;20414;-76
2023/09/30 08:26:33;;;;;;;11.80;8.73;;;14.30;99.90;;;;;;6067287;23;20168;-75
2023/09/30 08:28:58;;;;;;;12.73;9.30;;;14.40;99.90;;;;;;6087759;23;20390;-74
2023/09/30 08:31:25;;;;;;;14.07;9.73;;;14.50;99.90;;;;;;6064773;23;20373;-72
2023/09/30 08:33:51;;;;;;;10.03;8.90;;;14.60;99.90;;;;;;6113420;23;20190;-74
2023/09/30 08:36:17;;;;;;;13.90;9.70;;;14.60;99.90;;;;;;6064864;23;20405;-75
2023/09/30 08:38:47;;;;;;;12.80;10.57;;;14.70;99.90;;;;;;6067982;23;20140;-74
2023/09/30 08:41:30;;;;;;;9.67;8.33;;;14.80;99.90;;;;;;6105273;23;20155;-76
2023/09/30 08:43:59;;;;;;;12.37;9.67;;;14.80;99.90;;;;;;6149760;23;20505;-76
2023/09/30 08:46:25;;;;;;;12.17;9.80;;;15.00;99.90;;;;;;6175615;23;20383;-77
2023/09/30 08:48:56;;;;;;;16.63;11.03;;;15.00;99.90;;;;;;6180095;23;20378;-75
2023/09/30 08:51:22;;;;;;;15.83;11.73;;;15.00;99.90;;;;;;6153288;23;20390;-74
2023/09/30 08:53:49;;;;;;;12.47;9.43;;;15.00;99.90;;;;;;6178187;23;20803;-74
2023/09/30 08:56:16;;;;;;;13.60;8.67;;;15.00;99.90;;;;;;6154295;23;20147;-75
2023/09/30 08:58:42;;;;;;;13.30;11.10;;;15.10;99.90;;;;;;6153065;23;20375;-76
2023/09/30 09:01:18;;;;;;;16.77;14.00;;;15.10;99.90;;;;;;6178773;23;20371;-76
2023/09/30 09:03:44;;;;;;;16.53;12.40;;;15.20;99.90;;;;;;6121979;23;20566;-76
2023/09/30 09:06:10;;;;;;;12.77;10.77;;;15.20;99.90;;;;;;6120491;23;20383;-75
2023/09/30 09:08:35;;;;;;;13.23;10.77;;;15.10;99.90;;;;;;6119695;23;20203;-75
2023/09/30 09:11:05;;;;;;;17.27;12.30;;;15.20;99.90;;;;;;6146008;23;20140;-76
2023/09/30 09:13:49;;;;;;;12.67;11.03;;;15.20;99.90;;;;;;6099494;23;20176;-75
2023/09/30 09:16:20;;;;;;;17.67;13.20;;;15.20;99.90;;;;;;6125820;23;20398;-75
2023/09/30 09:18:48;;;;;;;20.93;12.40;;;15.30;99.90;;;;;;6122021;23;20396;-75
2023/09/30 09:21:20;;;;;;;17.80;11.30;;;15.30;99.90;;;;;;6122424;23;20372;-75
2023/09/30 09:23:51;;;;;;;21.23;13.33;;;15.40;99.90;;;;;;6121327;23;20399;-75
2023/09/30 09:26:31;;;;;;;14.23;12.47;;;15.50;99.90;;;;;;6143825;23;20406;-75
2023/09/30 09:29:00;;;;;;;16.53;13.40;;;15.60;99.90;;;;;;6123065;23;20375;-76
2023/09/30 09:31:31;;;;;;;18.97;13.93;;;15.70;99.90;;;;;;6122213;23;20418;-76
2023/09/30 09:33:59;;;;;;;16.00;12.70;;;15.80;99.90;;;;;;6131190;23;20399;-78
2023/09/30 09:36:48;;;;;;;18.97;13.43;;;15.90;99.90;;;;;;6178544;23;20407;-78
2023/09/30 09:39:16;;;;;;;14.63;13.03;;;16.00;99.90;;;;;;6174513;23;20424;-77
2023/09/30 09:41:56;;;;;;;17.53;13.03;;;16.20;99.90;;;;;;6147878;23;20390;-76
2023/09/30 09:44:25;;;;;;;19.60;15.43;;;16.30;99.90;;;;;;6151673;23;20426;-77
2023/09/30 09:46:51;;;;;;;20.63;15.67;;;16.30;99.90;;;;;;6176154;23;20402;-76
2023/09/30 09:49:18;;;;;;;19.70;15.30;;;16.40;99.90;;;;;;6176426;23;20383;-75
2023/09/30 09:51:50;;;;;;;18.30;14.33;;;16.40;99.90;;;;;;6174669;23;20170;-77
2023/09/30 09:54:28;;;;;;;18.80;14.60;;;16.40;99.90;;;;;;6146360;23;20401;-77
2023/09/30 09:57:00;;;;;;;18.67;14.40;;;16.40;99.90;;;;;;6102631;23;20389;-77
2023/09/30 09:59:28;;;;;;;20.13;14.47;;;16.50;99.90;;;;;;6078619;23;20391;-76
2023/09/30 10:01:55;;;;;;;18.13;13.60;;;16.50;99.90;;;;;;6076023;23;20435;-76
2023/09/30 10:04:22;;;;;;;16.03;12.50;;;16.50;99.90;;;;;;6098652;23;20435;-76
2023/09/30 10:06:53;;;;;;;14.40;11.93;;;16.50;99.90;;;;;;6105714;23;20509;-75
2023/09/30 10:09:20;;;;;;;14.83;11.40;;;16.60;99.90;;;;;;6150820;23;20376;-77
2023/09/30 10:11:59;;;;;;;13.07;10.53;;;16.70;99.90;;;;;;6148588;23;20375;-77
2023/09/30 10:14:47;;;;;;;12.83;11.53;;;16.80;99.90;;;;;;6151965;23;20397;-78
2023/09/30 10:17:13;;;;;;;16.33;12.30;;;16.90;99.90;;;;;;6126143;23;20386;-77
2023/09/30 10:20:04;;;;;;;12.00;10.00;;;16.90;99.90;;;;;;6127197;23;20377;-76
2023/09/30 10:22:31;;;;;;;14.63;10.23;;;17.00;99.90;;;;;;6151701;23;20431;-76
2023/09/30 10:25:23;;;;;;;11.63;9.17;;;17.00;99.90;;;;;;6109039;23;20537;-77
2023/09/30 10:27:49;;;;;;;11.10;8.90;;;17.20;99.90;;;;;;6103067;23;20436;-78
2023/09/30 10:30:23;;;;;;;9.93;8.60;;;17.40;99.90;;;;;;6122916;23;20376;-78
2023/09/30 10:34:02;;;;;;;10.33;7.97;;;17.70;99.90;;;;;;6104840;23;20538;-78
2023/09/30 10:39:56;;;;;;;10.50;7.63;;;18.20;99.90;;;;;;6121899;23;20464;-78
2023/09/30 10:48:34;;;;;;;11.87;7.97;;;18.40;99.90;;;;;;6101749;23;20479;-77
2023/09/30 10:54:06;;;;;;;9.20;7.30;;;18.30;99.90;;;;;;6035754;23;20446;-76
2023/09/30 10:56:38;;;;;;;7.70;6.90;;;18.40;99.90;;;;;;6035152;23;20450;-78
2023/09/30 10:59:12;;;;;;;10.33;6.27;;;18.40;99.90;;;;;;5989580;23;20446;-78
2023/09/30 11:04:46;;;;;;;8.97;6.33;;;18.50;99.90;;;;;;6127873;23;20463;-76
2023/09/30 11:10:11;;;;;;;11.30;7.87;;;18.80;99.40;;;;;;6122520;23;20458;-78
2023/09/30 11:12:53;;;;;;;9.00;7.20;;;18.50;93.40;;;;;;6079650;23;20455;-77
2023/09/30 11:15:24;;;;;;;9.50;7.70;;;18.50;94.80;;;;;;6046663;23;20464;-77
2023/09/30 11:18:12;;;;;;;9.70;7.80;;;18.50;93.20;;;;;;6022425;23;20389;-77
2023/09/30 11:20:38;;;;;;;17.27;11.13;;;18.30;92.50;;;;;;6092901;23;20409;-77
2023/09/30 11:23:04;;;;;;;10.60;8.10;;;18.30;93.20;;;;;;6046330;23;20397;-77
2023/09/30 11:25:35;;;;;;;8.90;6.00;;;18.30;93.30;;;;;;6093667;23;20386;-77
2023/09/30 11:28:21;;;;;;;7.23;5.53;;;18.40;92.70;;;;;;6047157;23;20504;-77
2023/09/30 11:31:02;;;;;;;8.20;4.40;;;18.30;91.10;;;;;;6048591;23;20381;-78
2023/09/30 11:33:30;;;;;;;4.20;3.40;;;18.30;89.00;;;;;;6065461;23;20416;-77
2023/09/30 11:36:06;;;;;;;9.90;4.70;;;18.30;89.10;;;;;;6066089;23;20425;-77
2023/09/30 11:38:39;;;;;;;8.23;5.00;;;18.40;87.00;;;;;;6071776;23;20400;-78
2023/09/30 11:41:08;;;;;;;7.10;4.43;;;18.40;87.00;;;;;;6111280;23;20437;-77
2023/09/30 11:46:59;;;;;;;3.97;3.10;;;18.60;85.00;;;;;;6072017;23;20460;-77
2023/09/30 11:49:39;;;;;;;6.70;4.80;;;18.90;84.50;;;;;;6101886;23;20459;-77
2023/09/30 11:52:15;;;;;;;6.90;4.90;;;19.00;81.70;;;;;;6132591;23;20402;-77
2023/09/30 11:54:48;;;;;;;6.70;4.90;;;19.20;80.50;;;;;;6121416;23;20403;-77
2023/09/30 11:57:26;;;;;;;10.83;5.00;;;19.30;76.70;;;;;;6054505;23;20406;-77
2023/09/30 12:00:14;;;;;;;10.07;6.70;;;19.30;73.50;;;;;;6049518;23;21366;-77
2023/09/30 12:02:41;;;;;;;10.33;7.27;;;19.40;74.00;;;;;;6009580;23;20414;-77
2023/09/30 12:05:11;;;;;;;9.47;6.10;;;19.60;74.00;;;;;;6068589;23;20463;-78
2023/09/30 12:20:59;;;;;;;6.60;3.97;;;19.80;71.20;;;;;;6132965;23;20462;-76
2023/09/30 12:23:25;;;;;;;9.70;4.60;;;19.70;70.00;;;;;;6098577;23;20468;-77
2023/09/30 12:25:54;;;;;;;5.47;3.60;;;19.80;68.90;;;;;;6075862;23;20141;-76
2023/09/30 12:28:31;;;;;;;7.07;3.80;;;19.70;69.10;;;;;;6078154;23;20422;-77
2023/09/30 12:31:02;;;;;;;4.70;3.33;;;19.70;68.60;;;;;;6098851;23;20493;-77
2023/09/30 12:33:53;;;;;;;6.23;3.90;;;19.60;68.30;;;;;;6074634;23;20393;-77
2023/09/30 12:37:04;;;;;;;5.53;2.93;;;19.60;67.10;;;;;;6094049;23;20397;-77
2023/09/30 12:39:37;;;;;;;7.50;4.10;;;19.60;65.20;;;;;;6068715;23;20377;-77
2023/09/30 12:42:08;;;;;;;7.53;3.10;;;19.50;64.60;;;;;;6064228;23;20382;-78
2023/09/30 12:44:49;;;;;;;9.43;4.60;;;19.40;65.70;;;;;;6040863;23;20491;-78
2023/09/30 12:47:23;;;;;;;6.30;4.73;;;19.40;64.00;;;;;;6064410;23;20410;-77
2023/09/30 12:50:13;;;;;;;5.53;3.77;;;19.30;64.50;;;;;;6016307;23;20382;-77
2023/09/30 13:01:49;;;;;;;8.93;3.83;;;19.10;66.20;;;;;;6067042;23;20427;-77
2023/09/30 13:04:51;;;;;;;5.80;3.90;;;19.00;64.90;;;;;;6063981;23;20444;31
2023/09/30 13:07:20;;;;;;;5.40;3.37;;;19.10;65.30;;;;;;6066554;23;20439;-78
2023/09/30 13:09:50;;;;;;;6.43;3.40;;;19.10;65.90;;;;;;6087159;23;20439;-77
2023/09/30 13:12:19;;;;;;;5.87;3.60;;;19.10;66.00;;;;;;6103220;23;20463;-76
2023/09/30 13:15:31;;;;;;;7.47;3.80;;;19.10;65.60;;;;;;6095062;23;20383;31
2023/09/30 13:18:01;;;;;;;7.93;3.43;;;19.10;65.70;;;;;;6137617;23;20450;-77
2023/09/30 13:23:17;;;;;;;5.63;3.07;;;19.10;65.60;;;;;;6131738;23;20518;-77
2023/09/30 13:25:43;;;;;;;3.27;2.90;;;19.10;64.90;;;;;;6150771;23;20478;-76
2023/09/30 13:28:09;;;;;;;5.50;3.37;;;19.30;64.90;;;;;;6101692;23;20187;-76
2023/09/30 13:30:35;;;;;;;3.50;2.30;;;19.30;64.60;;;;;;6151256;23;20348;-77
2023/09/30 13:33:02;;;;;;;3.00;2.20;;;19.40;64.60;;;;;;6152091;23;20414;-77
2023/09/30 13:35:45;;;;;;;5.90;3.17;;;19.50;64.00;;;;;;6150461;23;20387;-76
2023/09/30 13:38:11;;;;;;;2.70;1.90;;;19.60;63.40;;;;;;6151240;23;20382;-78